首页
METAR-TAF:

METAR-TAF

机场 :

韦斯卡, 西班牙

纬度: 42-04-32N, 经度: 0-18-58W, 海拔: 539米

当前天气观测

该预报发布于28分钟前的09:30 UTC
风速4节,风向,在东北东转东南之间变化
温度 18°C
湿度 77%
气压 1017 hPa
能见度10公里或以上
1500米以下无云,无积雨云

METAR: LEHC 010930Z AUTO 08004KT 040V120 CAVOK 18/14 Q1017

时间: 11:58 (09:58 UTC)

预报

该预报发布于1小时和58分钟前的08:00 UTC
预报有效从01日的 09点(UTC)到 02日的 09点(UTC)
风速5节,风向多变
能见度10公里或以上
少量云层高于4500英尺
几率 40% :
短暂存在
从 01日的 12点(UTC)到 01日的 20点(UTC)
能見度: 3000
少量云层高于6000英尺, 积雨云.
雷暴, 雨
几率 30% :
短暂存在
从 01日的 14点(UTC)到 01日的 18点(UTC)
风速15节,风向多变,有时为25节阵风
能見度: 1000
散云层高于6000英尺, 积雨云.
雷暴, 冰雹
成为
从 02日的 00点(UTC)到 02日的 02点(UTC)
风速4节,风向多变

TAF: LEHC 010800Z 0109/0209 VRB05KT 9999 FEW045 TX26/0113Z TN15/0206Z PROB40 TEMPO 0112/0120 3000 TSRA FEW060CB PROB30 TEMPO 0114/0118 VRB15G25KT 1000 TSGR SCT060CB BECMG 0200/0202 VRB04KT

超过4000个机场的气象观测和天气预报(METAR&TAF报告)。

可查询的气象台以黄色和红色小点在地图上表示。

将鼠标移到小点上方,可查看气象台名称。

然后点击查看天气观测和预报。

如需切换地图:点击带黑十字的绿色按钮放大地图;点击带横线的绿色按钮缩小地图;或者点击绿色箭头查看邻近地区的地图。


METAR-TAF: